sensor_id;sensor_type;location;lat;lon;timestamp;temperature;humidity
77056;SHT30;67471;44.918;8.614;2023-09-07T00:02:52;22.37;60.75
77056;SHT30;67471;44.918;8.614;2023-09-07T00:05:55;22.35;60.82
77056;SHT30;67471;44.918;8.614;2023-09-07T00:08:58;22.36;60.45
77056;SHT30;67471;44.918;8.614;2023-09-07T00:12:02;22.45;60.27
77056;SHT30;67471;44.918;8.614;2023-09-07T00:15:06;22.50;60.01
77056;SHT30;67471;44.918;8.614;2023-09-07T00:18:11;22.56;59.88
77056;SHT30;67471;44.918;8.614;2023-09-07T00:21:15;22.57;59.69
77056;SHT30;67471;44.918;8.614;2023-09-07T00:24:18;22.55;59.79
77056;SHT30;67471;44.918;8.614;2023-09-07T00:27:22;22.59;59.96
77056;SHT30;67471;44.918;8.614;2023-09-07T00:30:25;22.52;60.02
77056;SHT30;67471;44.918;8.614;2023-09-07T00:33:29;22.49;59.97
77056;SHT30;67471;44.918;8.614;2023-09-07T00:36:33;22.53;60.15
77056;SHT30;67471;44.918;8.614;2023-09-07T00:39:36;22.52;60.35
77056;SHT30;67471;44.918;8.614;2023-09-07T00:42:40;22.43;60.94
77056;SHT30;67471;44.918;8.614;2023-09-07T00:45:44;22.43;61.52
77056;SHT30;67471;44.918;8.614;2023-09-07T00:48:49;22.37;61.81
77056;SHT30;67471;44.918;8.614;2023-09-07T00:51:53;22.42;61.96
77056;SHT30;67471;44.918;8.614;2023-09-07T00:54:57;22.29;62.34
77056;SHT30;67471;44.918;8.614;2023-09-07T00:58:01;22.19;62.59
77056;SHT30;67471;44.918;8.614;2023-09-07T01:01:04;22.20;62.81
77056;SHT30;67471;44.918;8.614;2023-09-07T01:04:08;22.19;62.92
77056;SHT30;67471;44.918;8.614;2023-09-07T01:07:13;22.15;63.08
77056;SHT30;67471;44.918;8.614;2023-09-07T01:10:18;22.09;62.89
77056;SHT30;67471;44.918;8.614;2023-09-07T01:13:24;21.97;63.28
77056;SHT30;67471;44.918;8.614;2023-09-07T01:16:27;21.99;63.06
77056;SHT30;67471;44.918;8.614;2023-09-07T01:19:31;21.77;63.60
77056;SHT30;67471;44.918;8.614;2023-09-07T01:22:35;21.79;63.65
77056;SHT30;67471;44.918;8.614;2023-09-07T01:25:40;21.67;64.03
77056;SHT30;67471;44.918;8.614;2023-09-07T01:28:43;21.64;64.15
77056;SHT30;67471;44.918;8.614;2023-09-07T01:31:47;21.69;63.95
77056;SHT30;67471;44.918;8.614;2023-09-07T01:34:51;21.55;64.37
77056;SHT30;67471;44.918;8.614;2023-09-07T01:37:56;21.54;64.66
77056;SHT30;67471;44.918;8.614;2023-09-07T01:40:59;21.57;64.63
77056;SHT30;67471;44.918;8.614;2023-09-07T01:44:03;21.51;64.69
77056;SHT30;67471;44.918;8.614;2023-09-07T01:47:06;21.50;64.50
77056;SHT30;67471;44.918;8.614;2023-09-07T01:50:10;21.44;64.64
77056;SHT30;67471;44.918;8.614;2023-09-07T01:53:14;21.40;65.13
77056;SHT30;67471;44.918;8.614;2023-09-07T01:56:18;21.31;65.42
77056;SHT30;67471;44.918;8.614;2023-09-07T01:59:21;21.17;65.77
77056;SHT30;67471;44.918;8.614;2023-09-07T02:02:24;21.24;65.45
77056;SHT30;67471;44.918;8.614;2023-09-07T02:05:28;21.28;65.01
77056;SHT30;67471;44.918;8.614;2023-09-07T02:08:31;21.24;65.39
77056;SHT30;67471;44.918;8.614;2023-09-07T02:11:34;21.19;65.54
77056;SHT30;67471;44.918;8.614;2023-09-07T02:14:38;21.23;65.14
77056;SHT30;67471;44.918;8.614;2023-09-07T02:17:42;21.24;64.93
77056;SHT30;67471;44.918;8.614;2023-09-07T02:20:49;21.24;65.04
77056;SHT30;67471;44.918;8.614;2023-09-07T02:23:52;21.13;65.59
77056;SHT30;67471;44.918;8.614;2023-09-07T02:26:57;21.20;65.60
77056;SHT30;67471;44.918;8.614;2023-09-07T02:30:01;21.11;65.89
77056;SHT30;67471;44.918;8.614;2023-09-07T02:33:06;21.04;66.27
77056;SHT30;67471;44.918;8.614;2023-09-07T02:36:10;21.04;66.34
77056;SHT30;67471;44.918;8.614;2023-09-07T02:39:13;21.00;66.16
77056;SHT30;67471;44.918;8.614;2023-09-07T02:42:17;21.00;66.21
77056;SHT30;67471;44.918;8.614;2023-09-07T02:45:20;21.03;65.70
77056;SHT30;67471;44.918;8.614;2023-09-07T02:48:24;20.93;66.01
77056;SHT30;67471;44.918;8.614;2023-09-07T02:51:28;20.89;66.18
77056;SHT30;67471;44.918;8.614;2023-09-07T02:54:33;20.90;66.22
77056;SHT30;67471;44.918;8.614;2023-09-07T02:57:37;20.80;66.20
77056;SHT30;67471;44.918;8.614;2023-09-07T03:00:42;20.78;66.20
77056;SHT30;67471;44.918;8.614;2023-09-07T03:03:48;20.59;66.42
77056;SHT30;67471;44.918;8.614;2023-09-07T03:06:52;20.55;66.47
77056;SHT30;67471;44.918;8.614;2023-09-07T03:09:56;20.52;66.12
77056;SHT30;67471;44.918;8.614;2023-09-07T03:13:00;20.64;65.81
77056;SHT30;67471;44.918;8.614;2023-09-07T03:16:03;20.65;65.81
77056;SHT30;67471;44.918;8.614;2023-09-07T03:19:06;20.62;65.97
77056;SHT30;67471;44.918;8.614;2023-09-07T03:22:10;20.64;65.85
77056;SHT30;67471;44.918;8.614;2023-09-07T03:25:14;20.69;65.71
77056;SHT30;67471;44.918;8.614;2023-09-07T03:28:17;20.66;65.76
77056;SHT30;67471;44.918;8.614;2023-09-07T03:31:22;20.71;65.96
77056;SHT30;67471;44.918;8.614;2023-09-07T03:34:26;20.58;66.70
77056;SHT30;67471;44.918;8.614;2023-09-07T03:37:29;20.58;66.88
77056;SHT30;67471;44.918;8.614;2023-09-07T03:40:33;20.51;67.12
77056;SHT30;67471;44.918;8.614;2023-09-07T03:43:37;20.52;67.25
77056;SHT30;67471;44.918;8.614;2023-09-07T03:46:40;20.51;67.08
77056;SHT30;67471;44.918;8.614;2023-09-07T03:49:44;20.51;67.04
77056;SHT30;67471;44.918;8.614;2023-09-07T03:52:48;20.41;67.20
77056;SHT30;67471;44.918;8.614;2023-09-07T03:55:51;20.35;67.50
77056;SHT30;67471;44.918;8.614;2023-09-07T03:58:55;20.38;67.39
77056;SHT30;67471;44.918;8.614;2023-09-07T04:01:59;20.38;67.74
77056;SHT30;67471;44.918;8.614;2023-09-07T04:05:02;20.31;67.52
77056;SHT30;67471;44.918;8.614;2023-09-07T04:08:08;20.39;67.39
77056;SHT30;67471;44.918;8.614;2023-09-07T04:11:11;20.22;68.01
77056;SHT30;67471;44.918;8.614;2023-09-07T04:14:14;20.18;67.99
77056;SHT30;67471;44.918;8.614;2023-09-07T04:17:18;20.18;68.07
77056;SHT30;67471;44.918;8.614;2023-09-07T04:20:22;20.18;68.21
77056;SHT30;67471;44.918;8.614;2023-09-07T04:23:25;20.20;68.16
77056;SHT30;67471;44.918;8.614;2023-09-07T04:26:29;20.14;68.39
77056;SHT30;67471;44.918;8.614;2023-09-07T04:29:33;20.13;68.51
77056;SHT30;67471;44.918;8.614;2023-09-07T04:32:37;20.16;68.39
77056;SHT30;67471;44.918;8.614;2023-09-07T04:35:40;20.18;68.20
77056;SHT30;67471;44.918;8.614;2023-09-07T04:38:44;20.08;68.42
77056;SHT30;67471;44.918;8.614;2023-09-07T04:41:48;20.03;68.71
77056;SHT30;67471;44.918;8.614;2023-09-07T04:44:52;20.04;68.55
77056;SHT30;67471;44.918;8.614;2023-09-07T04:47:55;20.10;68.38
77056;SHT30;67471;44.918;8.614;2023-09-07T04:50:59;20.07;68.26
77056;SHT30;67471;44.918;8.614;2023-09-07T04:54:03;19.97;68.91
77056;SHT30;67471;44.918;8.614;2023-09-07T04:57:07;20.04;68.62
77056;SHT30;67471;44.918;8.614;2023-09-07T05:00:11;20.13;68.57
77056;SHT30;67471;44.918;8.614;2023-09-07T05:03:15;20.08;68.68
77056;SHT30;67471;44.918;8.614;2023-09-07T05:06:19;20.04;68.97
77056;SHT30;67471;44.918;8.614;2023-09-07T05:09:22;20.04;68.92
77056;SHT30;67471;44.918;8.614;2023-09-07T05:12:27;20.08;68.88
77056;SHT30;67471;44.918;8.614;2023-09-07T05:15:30;20.13;68.94
77056;SHT30;67471;44.918;8.614;2023-09-07T05:18:34;20.14;68.79
77056;SHT30;67471;44.918;8.614;2023-09-07T05:21:37;20.22;68.49
77056;SHT30;67471;44.918;8.614;2023-09-07T05:24:41;20.28;68.19
77056;SHT30;67471;44.918;8.614;2023-09-07T05:27:45;20.32;68.09
77056;SHT30;67471;44.918;8.614;2023-09-07T05:30:49;20.25;68.09
77056;SHT30;67471;44.918;8.614;2023-09-07T05:33:52;20.28;67.99
77056;SHT30;67471;44.918;8.614;2023-09-07T05:36:56;20.31;67.94
77056;SHT30;67471;44.918;8.614;2023-09-07T05:40:00;20.27;68.04
77056;SHT30;67471;44.918;8.614;2023-09-07T05:43:03;20.45;67.72
77056;SHT30;67471;44.918;8.614;2023-09-07T05:46:08;20.44;67.45
77056;SHT30;67471;44.918;8.614;2023-09-07T05:49:12;20.42;67.67
77056;SHT30;67471;44.918;8.614;2023-09-07T05:52:15;20.49;67.17
77056;SHT30;67471;44.918;8.614;2023-09-07T05:55:19;20.51;67.07
77056;SHT30;67471;44.918;8.614;2023-09-07T05:58:22;20.51;67.06
77056;SHT30;67471;44.918;8.614;2023-09-07T06:01:26;20.66;66.71
77056;SHT30;67471;44.918;8.614;2023-09-07T06:04:30;20.79;66.17
77056;SHT30;67471;44.918;8.614;2023-09-07T06:07:34;21.06;65.34
77056;SHT30;67471;44.918;8.614;2023-09-07T06:10:38;21.37;64.53
77056;SHT30;67471;44.918;8.614;2023-09-07T06:13:43;21.84;63.31
77056;SHT30;67471;44.918;8.614;2023-09-07T06:16:47;22.30;62.23
77056;SHT30;67471;44.918;8.614;2023-09-07T06:19:50;22.84;60.70
77056;SHT30;67471;44.918;8.614;2023-09-07T06:22:54;23.35;59.42
77056;SHT30;67471;44.918;8.614;2023-09-07T06:25:59;23.62;58.62
77056;SHT30;67471;44.918;8.614;2023-09-07T06:29:02;24.09;57.40
77056;SHT30;67471;44.918;8.614;2023-09-07T06:32:08;24.64;56.07
77056;SHT30;67471;44.918;8.614;2023-09-07T06:35:12;25.12;54.89
77056;SHT30;67471;44.918;8.614;2023-09-07T06:38:15;25.51;53.85
77056;SHT30;67471;44.918;8.614;2023-09-07T06:41:20;25.90;52.96
77056;SHT30;67471;44.918;8.614;2023-09-07T06:44:24;26.14;52.53
77056;SHT30;67471;44.918;8.614;2023-09-07T06:47:28;26.59;51.63
77056;SHT30;67471;44.918;8.614;2023-09-07T06:50:31;27.08;50.44
77056;SHT30;67471;44.918;8.614;2023-09-07T06:53:35;27.54;49.44
77056;SHT30;67471;44.918;8.614;2023-09-07T06:56:39;27.86;48.90
77056;SHT30;67471;44.918;8.614;2023-09-07T06:59:43;28.60;47.21
77056;SHT30;67471;44.918;8.614;2023-09-07T07:02:46;29.31;45.87
77056;SHT30;67471;44.918;8.614;2023-09-07T07:05:51;30.11;44.48
77056;SHT30;67471;44.918;8.614;2023-09-07T07:08:54;30.76;43.12
77056;SHT30;67471;44.918;8.614;2023-09-07T07:11:59;31.19;42.44
77056;SHT30;67471;44.918;8.614;2023-09-07T07:15:03;31.81;41.20
77056;SHT30;67471;44.918;8.614;2023-09-07T07:18:08;32.00;40.92
77056;SHT30;67471;44.918;8.614;2023-09-07T07:21:15;32.08;40.76
77056;SHT30;67471;44.918;8.614;2023-09-07T07:24:19;32.51;40.41
77056;SHT30;67471;44.918;8.614;2023-09-07T07:27:22;33.11;39.43
77056;SHT30;67471;44.918;8.614;2023-09-07T07:30:27;33.30;38.97
77056;SHT30;67471;44.918;8.614;2023-09-07T07:33:32;33.57;38.75
77056;SHT30;67471;44.918;8.614;2023-09-07T07:36:36;33.85;38.17
77056;SHT30;67471;44.918;8.614;2023-09-07T07:39:40;34.08;37.94
77056;SHT30;67471;44.918;8.614;2023-09-07T07:42:45;33.57;38.46
77056;SHT30;67471;44.918;8.614;2023-09-07T07:45:51;32.86;39.75
77056;SHT30;67471;44.918;8.614;2023-09-07T07:48:55;32.84;40.41
77056;SHT30;67471;44.918;8.614;2023-09-07T07:51:58;33.40;39.12
77056;SHT30;67471;44.918;8.614;2023-09-07T07:55:03;33.43;38.97
77056;SHT30;67471;44.918;8.614;2023-09-07T07:58:07;33.72;38.59
77056;SHT30;67471;44.918;8.614;2023-09-07T08:01:16;33.76;38.74
77056;SHT30;67471;44.918;8.614;2023-09-07T08:04:20;34.06;38.32
77056;SHT30;67471;44.918;8.614;2023-09-07T08:07:23;34.17;38.22
77056;SHT30;67471;44.918;8.614;2023-09-07T08:10:27;33.78;38.93
77056;SHT30;67471;44.918;8.614;2023-09-07T08:13:32;33.88;38.84
77056;SHT30;67471;44.918;8.614;2023-09-07T08:16:37;34.05;38.51
77056;SHT30;67471;44.918;8.614;2023-09-07T08:19:41;34.35;38.03
77056;SHT30;67471;44.918;8.614;2023-09-07T08:22:44;34.32;37.75
77056;SHT30;67471;44.918;8.614;2023-09-07T08:25:52;34.57;37.58
77056;SHT30;67471;44.918;8.614;2023-09-07T08:28:57;34.36;37.88
77056;SHT30;67471;44.918;8.614;2023-09-07T08:32:01;34.61;37.49
77056;SHT30;67471;44.918;8.614;2023-09-07T08:35:05;34.43;37.73
77056;SHT30;67471;44.918;8.614;2023-09-07T08:38:10;33.82;38.75
77056;SHT30;67471;44.918;8.614;2023-09-07T08:41:14;33.31;39.61
77056;SHT30;67471;44.918;8.614;2023-09-07T08:44:18;33.41;39.29
77056;SHT30;67471;44.918;8.614;2023-09-07T08:47:22;32.99;40.17
77056;SHT30;67471;44.918;8.614;2023-09-07T08:50:26;33.28;39.92
77056;SHT30;67471;44.918;8.614;2023-09-07T08:53:30;33.74;38.28
77056;SHT30;67471;44.918;8.614;2023-09-07T08:56:34;34.09;37.60
77056;SHT30;67471;44.918;8.614;2023-09-07T08:59:38;34.36;37.02
77056;SHT30;67471;44.918;8.614;2023-09-07T09:02:42;34.26;36.90
77056;SHT30;67471;44.918;8.614;2023-09-07T09:05:45;34.40;36.56
77056;SHT30;67471;44.918;8.614;2023-09-07T09:08:51;34.37;37.16
77056;SHT30;67471;44.918;8.614;2023-09-07T09:12:10;34.83;36.29
77056;SHT30;67471;44.918;8.614;2023-09-07T09:15:14;35.04;36.52
77056;SHT30;67471;44.918;8.614;2023-09-07T09:18:18;35.34;35.94
77056;SHT30;67471;44.918;8.614;2023-09-07T09:21:22;35.38;35.81
77056;SHT30;67471;44.918;8.614;2023-09-07T09:24:26;35.39;35.27
77056;SHT30;67471;44.918;8.614;2023-09-07T09:27:30;35.11;35.27
77056;SHT30;67471;44.918;8.614;2023-09-07T09:30:33;35.31;34.15
77056;SHT30;67471;44.918;8.614;2023-09-07T09:33:36;35.17;34.80
77056;SHT30;67471;44.918;8.614;2023-09-07T09:36:41;34.97;35.00
77056;SHT30;67471;44.918;8.614;2023-09-07T09:39:49;35.00;35.13
77056;SHT30;67471;44.918;8.614;2023-09-07T09:42:52;34.84;35.65
77056;SHT30;67471;44.918;8.614;2023-09-07T09:45:58;35.07;35.95
77056;SHT30;67471;44.918;8.614;2023-09-07T09:49:02;35.03;36.05
77056;SHT30;67471;44.918;8.614;2023-09-07T09:52:07;35.14;35.74
77056;SHT30;67471;44.918;8.614;2023-09-07T09:55:10;34.59;36.59
77056;SHT30;67471;44.918;8.614;2023-09-07T09:58:16;33.85;37.76
77056;SHT30;67471;44.918;8.614;2023-09-07T10:01:20;34.06;37.69
77056;SHT30;67471;44.918;8.614;2023-09-07T10:04:23;34.17;37.26
77056;SHT30;67471;44.918;8.614;2023-09-07T10:07:40;33.74;36.25
77056;SHT30;67471;44.918;8.614;2023-09-07T10:10:50;33.44;37.01
77056;SHT30;67471;44.918;8.614;2023-09-07T10:13:57;33.16;38.13
77056;SHT30;67471;44.918;8.614;2023-09-07T10:17:00;33.47;38.09
77056;SHT30;67471;44.918;8.614;2023-09-07T10:20:22;33.68;37.15
77056;SHT30;67471;44.918;8.614;2023-09-07T10:23:59;33.85;37.32
77056;SHT30;67471;44.918;8.614;2023-09-07T10:27:00;33.54;37.42
77056;SHT30;67471;44.918;8.614;2023-09-07T10:30:09;33.81;37.13
77056;SHT30;67471;44.918;8.614;2023-09-07T10:33:19;33.94;36.57
77056;SHT30;67471;44.918;8.614;2023-09-07T10:36:24;34.04;37.05
77056;SHT30;67471;44.918;8.614;2023-09-07T10:39:29;34.23;36.15
77056;SHT30;67471;44.918;8.614;2023-09-07T10:42:33;34.23;35.87
77056;SHT30;67471;44.918;8.614;2023-09-07T10:45:36;34.29;36.45
77056;SHT30;67471;44.918;8.614;2023-09-07T10:48:40;34.43;35.93
77056;SHT30;67471;44.918;8.614;2023-09-07T10:51:45;34.20;35.79
77056;SHT30;67471;44.918;8.614;2023-09-07T10:54:57;34.23;36.25
77056;SHT30;67471;44.918;8.614;2023-09-07T10:58:01;34.27;35.33
77056;SHT30;67471;44.918;8.614;2023-09-07T11:01:05;33.91;35.87
77056;SHT30;67471;44.918;8.614;2023-09-07T11:04:08;33.94;36.51
77056;SHT30;67471;44.918;8.614;2023-09-07T11:07:14;34.12;36.22
77056;SHT30;67471;44.918;8.614;2023-09-07T11:10:18;33.99;35.59
77056;SHT30;67471;44.918;8.614;2023-09-07T11:13:23;33.95;35.93
77056;SHT30;67471;44.918;8.614;2023-09-07T11:16:28;34.06;35.80
77056;SHT30;67471;44.918;8.614;2023-09-07T11:19:32;34.12;35.73
77056;SHT30;67471;44.918;8.614;2023-09-07T11:22:37;34.02;35.87
77056;SHT30;67471;44.918;8.614;2023-09-07T11:25:44;34.09;35.86
77056;SHT30;67471;44.918;8.614;2023-09-07T11:28:47;34.10;36.03
77056;SHT30;67471;44.918;8.614;2023-09-07T11:31:51;34.15;35.07
77056;SHT30;67471;44.918;8.614;2023-09-07T11:34:54;33.92;35.73
77056;SHT30;67471;44.918;8.614;2023-09-07T11:37:59;33.84;35.69
77056;SHT30;67471;44.918;8.614;2023-09-07T11:41:02;33.64;35.23
77056;SHT30;67471;44.918;8.614;2023-09-07T11:44:07;33.58;35.01
77056;SHT30;67471;44.918;8.614;2023-09-07T11:47:10;33.53;35.50
77056;SHT30;67471;44.918;8.614;2023-09-07T11:50:16;33.51;35.84
77056;SHT30;67471;44.918;8.614;2023-09-07T11:53:20;33.27;35.03
77056;SHT30;67471;44.918;8.614;2023-09-07T11:56:24;32.99;35.91
77056;SHT30;67471;44.918;8.614;2023-09-07T11:59:27;32.99;34.95
77056;SHT30;67471;44.918;8.614;2023-09-07T12:02:32;32.89;35.38
77056;SHT30;67471;44.918;8.614;2023-09-07T12:05:36;32.87;35.78
77056;SHT30;67471;44.918;8.614;2023-09-07T12:08:41;32.80;35.70
77056;SHT30;67471;44.918;8.614;2023-09-07T12:11:45;32.87;34.90
77056;SHT30;67471;44.918;8.614;2023-09-07T12:14:49;32.42;34.26
77056;SHT30;67471;44.918;8.614;2023-09-07T12:17:52;32.32;34.49
77056;SHT30;67471;44.918;8.614;2023-09-07T12:20:57;32.46;34.90
77056;SHT30;67471;44.918;8.614;2023-09-07T12:24:01;32.45;35.83
77056;SHT30;67471;44.918;8.614;2023-09-07T12:27:05;32.48;36.51
77056;SHT30;67471;44.918;8.614;2023-09-07T12:30:09;32.52;35.77
77056;SHT30;67471;44.918;8.614;2023-09-07T12:33:16;32.45;35.21
77056;SHT30;67471;44.918;8.614;2023-09-07T12:36:19;32.49;35.58
77056;SHT30;67471;44.918;8.614;2023-09-07T12:39:24;32.48;35.61
77056;SHT30;67471;44.918;8.614;2023-09-07T12:42:28;32.48;35.76
77056;SHT30;67471;44.918;8.614;2023-09-07T12:45:31;32.42;36.26
77056;SHT30;67471;44.918;8.614;2023-09-07T12:48:37;32.42;36.13
77056;SHT30;67471;44.918;8.614;2023-09-07T12:51:41;32.39;35.48
77056;SHT30;67471;44.918;8.614;2023-09-07T12:54:44;32.28;35.75
77056;SHT30;67471;44.918;8.614;2023-09-07T12:57:48;32.27;35.51
77056;SHT30;67471;44.918;8.614;2023-09-07T13:00:54;32.42;34.70
77056;SHT30;67471;44.918;8.614;2023-09-07T13:03:57;32.45;35.07
77056;SHT30;67471;44.918;8.614;2023-09-07T13:07:01;32.46;35.83
77056;SHT30;67471;44.918;8.614;2023-09-07T13:10:05;32.55;35.86
77056;SHT30;67471;44.918;8.614;2023-09-07T13:13:09;32.48;36.11
77056;SHT30;67471;44.918;8.614;2023-09-07T13:16:12;32.51;36.15
77056;SHT30;67471;44.918;8.614;2023-09-07T13:19:16;32.52;36.11
77056;SHT30;67471;44.918;8.614;2023-09-07T13:22:20;32.43;36.54
77056;SHT30;67471;44.918;8.614;2023-09-07T13:25:24;32.49;36.84
77056;SHT30;67471;44.918;8.614;2023-09-07T13:28:28;32.51;36.58
77056;SHT30;67471;44.918;8.614;2023-09-07T13:31:31;32.35;37.09
77056;SHT30;67471;44.918;8.614;2023-09-07T13:34:35;32.43;37.26
77056;SHT30;67471;44.918;8.614;2023-09-07T13:37:38;32.35;36.97
77056;SHT30;67471;44.918;8.614;2023-09-07T13:40:42;32.18;37.21
77056;SHT30;67471;44.918;8.614;2023-09-07T13:43:46;32.31;37.15
77056;SHT30;67471;44.918;8.614;2023-09-07T13:46:50;32.31;37.15
77056;SHT30;67471;44.918;8.614;2023-09-07T13:49:54;32.32;37.60
77056;SHT30;67471;44.918;8.614;2023-09-07T13:52:58;32.42;37.40
77056;SHT30;67471;44.918;8.614;2023-09-07T13:56:01;32.40;37.55
77056;SHT30;67471;44.918;8.614;2023-09-07T13:59:05;32.45;37.01
77056;SHT30;67471;44.918;8.614;2023-09-07T14:02:09;32.42;36.88
77056;SHT30;67471;44.918;8.614;2023-09-07T14:05:13;32.32;36.10
77056;SHT30;67471;44.918;8.614;2023-09-07T14:08:16;32.42;36.07
77056;SHT30;67471;44.918;8.614;2023-09-07T14:11:26;32.42;35.96
77056;SHT30;67471;44.918;8.614;2023-09-07T14:14:29;32.42;36.34
77056;SHT30;67471;44.918;8.614;2023-09-07T14:17:33;32.55;36.51
77056;SHT30;67471;44.918;8.614;2023-09-07T14:20:37;32.53;36.59
77056;SHT30;67471;44.918;8.614;2023-09-07T14:23:40;32.56;36.43
77056;SHT30;67471;44.918;8.614;2023-09-07T14:26:46;32.63;36.36
77056;SHT30;67471;44.918;8.614;2023-09-07T14:29:50;32.68;36.70
77056;SHT30;67471;44.918;8.614;2023-09-07T14:32:53;32.68;36.79
77056;SHT30;67471;44.918;8.614;2023-09-07T14:35:57;32.63;37.07
77056;SHT30;67471;44.918;8.614;2023-09-07T14:39:00;32.63;36.66
77056;SHT30;67471;44.918;8.614;2023-09-07T14:42:04;32.56;35.37
77056;SHT30;67471;44.918;8.614;2023-09-07T14:45:14;32.56;35.64
77056;SHT30;67471;44.918;8.614;2023-09-07T14:48:18;32.51;35.80
77056;SHT30;67471;44.918;8.614;2023-09-07T14:51:21;32.51;35.41
77056;SHT30;67471;44.918;8.614;2023-09-07T14:54:25;32.49;35.43
77056;SHT30;67471;44.918;8.614;2023-09-07T14:57:28;32.53;35.48
77056;SHT30;67471;44.918;8.614;2023-09-07T15:00:32;32.52;35.67
77056;SHT30;67471;44.918;8.614;2023-09-07T15:03:35;32.55;35.31
77056;SHT30;67471;44.918;8.614;2023-09-07T15:06:43;32.55;35.43
77056;SHT30;67471;44.918;8.614;2023-09-07T15:09:46;32.45;35.19
77056;SHT30;67471;44.918;8.614;2023-09-07T15:12:50;32.32;35.19
77056;SHT30;67471;44.918;8.614;2023-09-07T15:15:53;32.38;35.58
77056;SHT30;67471;44.918;8.614;2023-09-07T15:18:56;32.32;35.00
77056;SHT30;67471;44.918;8.614;2023-09-07T15:22:00;32.39;35.06
77056;SHT30;67471;44.918;8.614;2023-09-07T15:25:04;32.42;35.30
77056;SHT30;67471;44.918;8.614;2023-09-07T15:28:08;32.42;35.51
77056;SHT30;67471;44.918;8.614;2023-09-07T15:31:12;32.32;35.56
77056;SHT30;67471;44.918;8.614;2023-09-07T15:34:15;32.24;35.56
77056;SHT30;67471;44.918;8.614;2023-09-07T15:37:19;32.19;35.83
77056;SHT30;67471;44.918;8.614;2023-09-07T15:40:23;32.14;36.24
77056;SHT30;67471;44.918;8.614;2023-09-07T15:43:27;32.15;36.07
77056;SHT30;67471;44.918;8.614;2023-09-07T15:46:30;32.09;36.24
77056;SHT30;67471;44.918;8.614;2023-09-07T15:49:34;32.12;36.18
77056;SHT30;67471;44.918;8.614;2023-09-07T15:52:45;32.07;36.20
77056;SHT30;67471;44.918;8.614;2023-09-07T15:55:51;31.97;36.41
77056;SHT30;67471;44.918;8.614;2023-09-07T15:58:55;31.90;36.46
77056;SHT30;67471;44.918;8.614;2023-09-07T16:01:58;31.87;36.60
77056;SHT30;67471;44.918;8.614;2023-09-07T16:05:02;31.90;36.86
77056;SHT30;67471;44.918;8.614;2023-09-07T16:08:06;31.82;37.28
77056;SHT30;67471;44.918;8.614;2023-09-07T16:11:09;31.70;37.59
77056;SHT30;67471;44.918;8.614;2023-09-07T16:14:13;31.66;37.74
77056;SHT30;67471;44.918;8.614;2023-09-07T16:17:17;31.64;37.92
77056;SHT30;67471;44.918;8.614;2023-09-07T16:20:20;31.66;37.70
77056;SHT30;67471;44.918;8.614;2023-09-07T16:23:23;31.54;37.40
77056;SHT30;67471;44.918;8.614;2023-09-07T16:26:27;31.40;37.45
77056;SHT30;67471;44.918;8.614;2023-09-07T16:29:32;31.39;37.46
77056;SHT30;67471;44.918;8.614;2023-09-07T16:32:36;31.36;37.51
77056;SHT30;67471;44.918;8.614;2023-09-07T16:35:41;31.25;37.68
77056;SHT30;67471;44.918;8.614;2023-09-07T16:38:45;31.22;37.66
77056;SHT30;67471;44.918;8.614;2023-09-07T16:41:50;31.09;37.76
77056;SHT30;67471;44.918;8.614;2023-09-07T16:44:53;31.12;38.23
77056;SHT30;67471;44.918;8.614;2023-09-07T16:47:57;31.03;38.66
77056;SHT30;67471;44.918;8.614;2023-09-07T16:51:00;30.98;38.81
77056;SHT30;67471;44.918;8.614;2023-09-07T16:54:04;30.96;39.10
77056;SHT30;67471;44.918;8.614;2023-09-07T16:57:08;30.81;39.60
77056;SHT30;67471;44.918;8.614;2023-09-07T17:00:11;30.72;39.92
77056;SHT30;67471;44.918;8.614;2023-09-07T17:03:15;30.69;40.12
77056;SHT30;67471;44.918;8.614;2023-09-07T17:06:18;30.60;40.49
77056;SHT30;67471;44.918;8.614;2023-09-07T17:09:22;30.54;40.85
77056;SHT30;67471;44.918;8.614;2023-09-07T17:12:26;30.49;41.10
77056;SHT30;67471;44.918;8.614;2023-09-07T17:15:31;30.44;41.40
77056;SHT30;67471;44.918;8.614;2023-09-07T17:18:34;30.47;41.42
77056;SHT30;67471;44.918;8.614;2023-09-07T17:21:38;30.27;41.70
77056;SHT30;67471;44.918;8.614;2023-09-07T17:24:43;30.21;41.95
77056;SHT30;67471;44.918;8.614;2023-09-07T17:27:47;30.17;42.12
77056;SHT30;67471;44.918;8.614;2023-09-07T17:30:50;30.10;42.41
77056;SHT30;67471;44.918;8.614;2023-09-07T17:33:54;30.06;42.70
77056;SHT30;67471;44.918;8.614;2023-09-07T17:36:58;29.96;42.92
77056;SHT30;67471;44.918;8.614;2023-09-07T17:40:02;29.89;43.14
77056;SHT30;67471;44.918;8.614;2023-09-07T17:43:05;29.73;43.53
77056;SHT30;67471;44.918;8.614;2023-09-07T17:46:09;29.69;43.66
77056;SHT30;67471;44.918;8.614;2023-09-07T17:49:13;29.65;43.83
77056;SHT30;67471;44.918;8.614;2023-09-07T17:52:16;29.56;43.98
77056;SHT30;67471;44.918;8.614;2023-09-07T17:55:20;29.53;44.24
77056;SHT30;67471;44.918;8.614;2023-09-07T17:58:23;29.42;44.36
77056;SHT30;67471;44.918;8.614;2023-09-07T18:01:27;29.33;44.62
77056;SHT30;67471;44.918;8.614;2023-09-07T18:04:31;29.19;45.05
77056;SHT30;67471;44.918;8.614;2023-09-07T18:07:35;29.14;45.31
77056;SHT30;67471;44.918;8.614;2023-09-07T18:10:38;29.01;45.59
77056;SHT30;67471;44.918;8.614;2023-09-07T18:13:42;28.90;45.94
77056;SHT30;67471;44.918;8.614;2023-09-07T18:16:46;28.81;46.15
77056;SHT30;67471;44.918;8.614;2023-09-07T18:19:49;28.71;46.45
77056;SHT30;67471;44.918;8.614;2023-09-07T18:22:53;28.67;46.82
77056;SHT30;67471;44.918;8.614;2023-09-07T18:25:58;28.59;46.96
77056;SHT30;67471;44.918;8.614;2023-09-07T18:29:01;28.53;47.37
77056;SHT30;67471;44.918;8.614;2023-09-07T18:32:06;28.47;47.63
77056;SHT30;67471;44.918;8.614;2023-09-07T18:35:10;28.37;47.93
77056;SHT30;67471;44.918;8.614;2023-09-07T18:38:14;28.33;48.13
77056;SHT30;67471;44.918;8.614;2023-09-07T18:41:17;28.32;48.31
77056;SHT30;67471;44.918;8.614;2023-09-07T18:44:20;28.20;48.56
77056;SHT30;67471;44.918;8.614;2023-09-07T18:47:24;28.05;49.06
77056;SHT30;67471;44.918;8.614;2023-09-07T18:50:28;28.06;49.39
77056;SHT30;67471;44.918;8.614;2023-09-07T18:53:32;27.91;49.71
77056;SHT30;67471;44.918;8.614;2023-09-07T18:56:35;27.85;49.93
77056;SHT30;67471;44.918;8.614;2023-09-07T18:59:39;27.80;50.11
77056;SHT30;67471;44.918;8.614;2023-09-07T19:02:42;27.75;50.32
77056;SHT30;67471;44.918;8.614;2023-09-07T19:05:46;27.62;50.52
77056;SHT30;67471;44.918;8.614;2023-09-07T19:08:50;27.62;50.57
77056;SHT30;67471;44.918;8.614;2023-09-07T19:11:53;27.68;50.55
77056;SHT30;67471;44.918;8.614;2023-09-07T19:14:56;27.62;50.66
77056;SHT30;67471;44.918;8.614;2023-09-07T19:18:00;27.57;50.85
77056;SHT30;67471;44.918;8.614;2023-09-07T19:21:04;27.61;50.84
77056;SHT30;67471;44.918;8.614;2023-09-07T19:24:07;27.48;51.05